Flight Track Log - Related Links

Times and Time Zones

All times are in EST time to prevent confusion due to time zone crossing. See the JBU56 flight status page for this flight to view local times or setup timezone preferences in your user account.

Time Position Orientation Groundspeed Altitude Reporting Facility
EST Latitude Longitude Course Direction KTS MPH feet Rate Location/Type
Wed 10:07:40 AM 38.9833 -77.5167 90° East 164 189 3,400  Level Potomac TRACON
Wed 10:08:34 AM 39.0167 -77.5500 322° Northwest 206 237 5,400 2,211 Climbing Potomac TRACON
Wed 10:09:34 AM 39.0833 -77.5000 30° Northeast 282 325 7,600 2,250 Climbing Potomac TRACON
Wed 10:10:00 AM 39.2198 -76.9914 67° East  Level Estimated
Wed 10:10:34 AM 39.1500 -77.4333 38° Northeast 339 390 9,900  Level Potomac TRACON
Wed 10:11:00 AM 39.2876 -76.8737 90° East  Level Estimated
Wed 10:11:28 AM 39.1667 -77.3167 80° East 379 436 10,000  Level Potomac TRACON
Wed 10:12:00 AM 39.3553 -76.7557 78° East  Level Estimated
Wed 10:12:22 AM 39.1500 -77.2000 100° East 382 440 12,600  Level Potomac TRACON
Wed 10:13:00 AM 39.4228 -76.6376 90° East  Level Estimated
Wed 10:13:22 AM 39.1333 -77.0500 98° East 394 453 16,100  Level Potomac TRACON
Wed 10:14:57 AM 39.1214 -76.8517 94° East 381 438 19,000 1,569 Climbing Washington Center
Wed 10:15:55 AM 39.1250 -76.7047 88° East 399 459 20,100 1,311 Climbing Washington Center
Wed 10:16:56 AM 39.1325 -76.5494 86° East 416 479 21,600 1,438 Climbing Washington Center
Wed 10:17:56 AM 39.1400 -76.3917 86° East 430 495 23,000 694 Climbing Washington Center
Wed 10:18:57 AM 39.1514 -76.2233 85° East 444 511 23,000  Level Washington Center
Wed 10:19:57 AM 39.1708 -76.0736 80° East 462 532 23,000  Level Washington Center
Wed 10:20:55 AM 39.1942 -75.9156 79° East 462 532 23,000 769 Level Washington Center
Wed 10:21:54 AM 39.2736 -75.7792 53° Northeast 454 522 24,500 1,550 Climbing Washington Center
Wed 10:22:55 AM 39.3739 -75.6506 45° Northeast 471 542 26,100 1,377 Climbing Washington Center
Wed 10:23:56 AM 39.4761 -75.5164 45° Northeast 494 568 27,300 1,240 Climbing Washington Center
Wed 10:24:56 AM 39.5781 -75.3814 46° Northeast 507 583 28,600 1,110 Climbing Washington Center
Wed 10:27:16 AM 39.8239 -75.0333 47° Northeast 526 605 31,000 720 Climbing New York Center
Wed 10:28:16 AM 39.9272 -74.8828 48° Northeast 541 623 31,000  Level New York Center
Wed 10:29:16 AM 40.0217 -74.7392 49° Northeast 535 616 31,000  Level New York Center
Wed 10:30:16 AM 40.0989 -74.6186 50° Northeast 535 616 31,000  Level New York Center
Wed 10:31:16 AM 40.2103 -74.4511 49° Northeast 541 623 31,000  Level New York Center
Wed 10:32:16 AM 40.3067 -74.3011 50° Northeast 541 623 31,000  Level New York Center
Wed 10:33:55 AM 40.4753 -74.0403 50° Northeast 546 628 31,000  Level Boston Center
Wed 10:34:55 AM 40.5700 -73.8981 49° Northeast 533 613 31,000 -50 Level Boston Center
Wed 10:35:56 AM 40.6678 -73.7458 50° Northeast 538 619 30,900 -1,056 Descending Boston Center
Wed 10:37:00 AM 40.7647 -73.5928 50° Northeast 541 623 28,800 -1,887 Descending Boston Center
Wed 10:38:00 AM 40.8608 -73.4400 50° Northeast 541 623 27,000 -885 Descending Boston Center
Wed 10:39:02 AM 40.9581 -73.2975 48° Northeast 534 615 27,000 -293 Level Boston Center
Wed 10:40:03 AM 41.0553 -73.1542 48° Northeast 529 609 26,400 -1,328 Descending Boston Center
Wed 10:41:04 AM 41.1522 -73.0089 48° Northeast 528 608 24,300 -1,672 Descending Boston Center
Wed 10:42:05 AM 41.2356 -72.8625 53° Northeast 505 581 23,000 -639 Descending Boston Center
Wed 10:43:06 AM 41.3017 -72.6942 62° Northeast 482 555 23,000  Level Boston Center
Wed 10:44:06 AM 41.3611 -72.5336 64° Northeast 480 552 23,000  Level Boston Center
Wed 10:45:07 AM 41.4208 -72.3700 64° Northeast 487 560 23,000  Level Boston Center
Wed 10:46:08 AM 41.4794 -72.2053 65° Northeast 490 564 23,000 -639 Level Boston Center
Wed 10:47:09 AM 41.5411 -72.0261 65° Northeast 490 564 21,700 -1,587 Descending Boston Center
Wed 10:48:09 AM 41.5967 -71.8697 65° Northeast 470 541 19,800 -2,182 Descending Boston Center
Wed 10:49:10 AM 41.6533 -71.7083 65° Northeast 447 514 17,300 -2,081 Descending Boston Center
Wed 10:50:13 AM 41.6972 -71.5781 66° East 430 495 15,500 -1,935 Descending Boston Center
Wed 10:51:14 AM 41.7542 -71.4181 64° Northeast 420 483 13,300 -1,967 Descending Boston Center
Wed 10:52:15 AM 41.8111 -71.2878 60° Northeast 412 474 11,500 -1,180 Descending Boston Center
Wed 10:53:16 AM 41.8858 -71.1653 51° Northeast 393 452 10,900 -742 Descending Boston Center
Wed 10:53:52 AM 41.9333 -71.1000 46° Northeast 364 419 10,300 -1,500 Descending KA90
Wed 10:54:52 AM 42.0000 -71.0000 48° Northeast 358 412 8,500 -1,684 Descending KA90
Wed 10:55:46 AM 42.0500 -70.9000 56° Northeast 354 407 7,100 -1,412 Descending KA90
Wed 10:56:17 AM 42.0747 -70.8572 52° Northeast 350 403 6,500 -702 Descending Boston Center
Wed 10:57:20 AM 42.1292 -70.7669 51° Northeast 344 396 6,000 -242 Descending Boston Center
Wed 10:58:21 AM 42.1889 -70.6683 51° Northeast 340 391 6,000 -245 Level Boston Center
Wed 10:58:58 AM 42.2333 -70.5833 55° Northeast 339 390 5,600 -557 Descending KA90
Wed 10:59:58 AM 42.3000 -70.5167 36° Northeast 333 383 5,100 -444 Descending KA90
Wed 11:00:46 AM 42.3500 -70.5500 334° Northwest 228 262 4,800 -556 Descending KA90
Wed 11:01:46 AM 42.4000 -70.6000 324° Northwest 231 266 4,100 -500 Descending KA90
Wed 11:02:22 AM 42.4314 -70.6383 318° Northwest 233 268 4,000 -364 Descending Boston Center
Wed 11:03:25 AM 42.4756 -70.6986 315° West 229 264 3,500 -488 Descending Boston Center
Wed 11:04:25 AM 42.5153 -70.7631 310° West 225 259 3,000 -198 Descending Boston Center
Wed 11:05:26 AM 42.5536 -70.8311 307° West 221 254 3,100  Climbing Boston Center
Wed 11:06:26 AM 42.5525 -70.9019 269° West 189 217 3,000 -50 Descending Boston Center
Wed 11:07:27 AM 42.5203 -70.9308 213° Southwest 143 165 3,000 -344 Level Boston Center
Wed 11:08:28 AM 42.4814 -70.9492 199° South 146 168 2,300 -732 Descending Boston Center
Wed 11:09:30 AM 42.4431 -70.9686 201° Southwest 137 158 1,500 -738 Descending Boston Center
Wed 11:10:30 AM 42.4108 -70.9839 199° South 124 143 800 -446 Descending Boston Center
Wed 11:11:31 AM 42.3814 -70.9975 199° South 124 143 600 -197 Descending Boston Center

Login

Don't have an account? Register now (free) for customized features, flight alerts, and more!